Time;durP1;ratioP1;P1;durP2;ratioP2;P2;SDS_P1;SDS_P2;PMS_P1;PMS_P2;Temp;Humidity;BMP_temperature;BMP_pressure;BME280_temperature;BME280_humidity;BME280_pressure;Samples;Min_cycle;Max_cycle;Signal;HPM_P1;HPM_P2
2021/07/22 00:00:51;;;;;;;49.03;29.40;;;21.80;99.90;;;;;;5064642;28;20513;-63
2021/07/22 00:03:17;;;;;;;48.42;29.67;;;21.70;99.90;;;;;;5065573;28;20176;-64
2021/07/22 00:05:43;;;;;;;47.85;29.60;;;21.60;99.90;;;;;;5067007;28;20177;-64
2021/07/22 00:08:11;;;;;;;53.60;30.17;;;21.50;99.90;;;;;;5067019;28;20269;-63
2021/07/22 00:10:41;;;;;;;49.70;28.30;;;21.50;99.90;;;;;;5064249;28;20237;-63
2021/07/22 00:13:07;;;;;;;45.10;27.23;;;21.40;99.90;;;;;;5066641;28;20252;-63
2021/07/22 00:15:34;;;;;;;44.17;27.75;;;21.40;99.90;;;;;;5067001;28;20161;-63
2021/07/22 00:18:00;;;;;;;50.78;27.88;;;21.40;99.90;;;;;;5066909;28;20622;-63
2021/07/22 00:20:26;;;;;;;47.63;27.85;;;21.30;99.90;;;;;;5065387;28;20164;-63
2021/07/22 00:22:52;;;;;;;44.13;27.50;;;21.30;99.90;;;;;;5065581;28;20619;-63
2021/07/22 00:25:17;;;;;;;50.80;27.83;;;21.20;99.90;;;;;;5066456;28;20224;-63
2021/07/22 00:27:43;;;;;;;50.05;27.92;;;21.40;99.90;;;;;;5065478;28;20176;-63
2021/07/22 00:30:09;;;;;;;56.58;32.92;;;21.40;99.90;;;;;;5066998;28;20179;-63
2021/07/22 00:32:35;;;;;;;55.00;32.92;;;21.40;99.90;;;;;;5063849;28;20196;-63
2021/07/22 00:35:01;;;;;;;57.60;32.20;;;21.40;99.90;;;;;;5066510;28;20634;-64
2021/07/22 00:37:27;;;;;;;58.40;33.45;;;21.30;99.90;;;;;;5066609;28;20186;-64
2021/07/22 00:39:52;;;;;;;56.13;32.83;;;21.30;99.90;;;;;;5066372;28;20156;-64
2021/07/22 00:42:18;;;;;;;62.55;34.40;;;21.20;99.90;;;;;;5063467;28;20242;-64
2021/07/22 00:44:44;;;;;;;53.20;31.05;;;21.40;99.90;;;;;;5066467;28;20256;-63
2021/07/22 00:47:10;;;;;;;59.35;32.17;;;21.40;99.90;;;;;;5066116;28;20172;-63
2021/07/22 00:49:35;;;;;;;60.13;32.42;;;21.30;99.90;;;;;;5064946;28;20164;-63
2021/07/22 00:52:01;;;;;;;58.03;32.53;;;21.10;99.90;;;;;;5063612;28;20180;-64
2021/07/22 00:54:27;;;;;;;54.28;32.05;;;21.00;99.90;;;;;;5064802;28;20183;-64
2021/07/22 00:56:52;;;;;;;54.20;30.75;;;20.80;99.90;;;;;;5065801;28;20172;-63
2021/07/22 00:59:18;;;;;;;65.22;33.70;;;21.00;99.90;;;;;;5065847;28;20153;-63
2021/07/22 01:01:43;;;;;;;63.50;36.15;;;21.30;99.90;;;;;;5063120;28;20207;-63
2021/07/22 01:04:09;;;;;;;63.60;35.00;;;21.30;99.90;;;;;;5066113;28;20165;-63
2021/07/22 01:06:35;;;;;;;58.22;34.33;;;21.00;99.90;;;;;;5065953;28;20184;-63
2021/07/22 01:09:00;;;;;;;58.03;33.03;;;20.70;99.90;;;;;;5065657;28;20209;-63
2021/07/22 01:11:26;;;;;;;58.97;32.67;;;20.50;99.90;;;;;;5063299;28;20169;-63
2021/07/22 01:13:51;;;;;;;53.92;33.00;;;20.50;99.90;;;;;;5065330;28;20196;-63
2021/07/22 01:16:17;;;;;;;59.42;33.67;;;20.60;99.90;;;;;;5065969;28;20203;-63
2021/07/22 01:18:43;;;;;;;60.83;34.70;;;20.50;99.90;;;;;;5065905;28;20172;-63
2021/07/22 01:21:09;;;;;;;60.75;34.90;;;20.50;99.90;;;;;;5063393;28;20164;-63
2021/07/22 01:23:35;;;;;;;58.33;34.20;;;20.50;99.90;;;;;;5065793;28;20177;-64
2021/07/22 01:26:01;;;;;;;60.30;36.00;;;20.50;99.90;;;;;;5065679;28;20218;-63
2021/07/22 01:28:27;;;;;;;58.65;33.35;;;20.50;99.90;;;;;;5065270;28;20168;-63
2021/07/22 01:30:53;;;;;;;64.82;36.40;;;20.50;99.90;;;;;;5063138;28;20169;-64
2021/07/22 01:33:18;;;;;;;69.40;38.15;;;20.50;99.90;;;;;;5064073;28;20215;-63
2021/07/22 01:35:44;;;;;;;82.20;41.05;;;20.60;99.90;;;;;;5065632;28;20157;-63
2021/07/22 01:38:10;;;;;;;78.45;43.47;;;20.80;99.90;;;;;;5065662;28;20161;-63
2021/07/22 01:40:35;;;;;;;71.90;38.47;;;21.00;99.90;;;;;;5063246;28;20156;-63
2021/07/22 01:43:05;;;;;;;68.72;39.55;;;21.10;99.90;;;;;;5065138;28;20248;-63
2021/07/22 01:45:31;;;;;;;71.10;39.63;;;20.80;99.90;;;;;;5065585;28;20161;-63
2021/07/22 01:47:57;;;;;;;70.75;37.78;;;20.60;99.90;;;;;;5065485;28;20175;-63
2021/07/22 01:50:23;;;;;;;68.55;37.72;;;20.40;99.90;;;;;;5064600;28;20165;-63
2021/07/22 01:52:48;;;;;;;63.75;34.20;;;20.30;99.90;;;;;;5063871;28;20271;-63
2021/07/22 01:55:14;;;;;;;69.35;37.33;;;20.30;99.90;;;;;;5065399;28;20193;-63
2021/07/22 01:57:40;;;;;;;80.13;42.70;;;20.30;99.90;;;;;;5065434;28;20165;-63
2021/07/22 02:00:06;;;;;;;79.35;43.17;;;20.30;99.90;;;;;;5067191;28;20642;-64
2021/07/22 02:02:32;;;;;;;84.85;44.47;;;20.20;99.90;;;;;;5066884;28;20177;-63
2021/07/22 02:04:59;;;;;;;81.65;43.65;;;20.20;99.90;;;;;;5069137;28;20177;-63
2021/07/22 02:07:25;;;;;;;82.78;45.28;;;20.30;99.90;;;;;;5069170;28;20200;-63
2021/07/22 02:09:51;;;;;;;77.15;42.15;;;20.40;99.90;;;;;;5069252;28;20227;-63
2021/07/22 02:12:16;;;;;;;79.05;43.50;;;20.40;99.90;;;;;;5066382;28;20192;-63
2021/07/22 02:14:42;;;;;;;82.93;42.42;;;20.30;99.90;;;;;;5069308;28;20168;-64
2021/07/22 02:17:08;;;;;;;80.03;42.88;;;20.10;99.90;;;;;;5069362;28;20168;-63
2021/07/22 02:19:34;;;;;;;77.72;39.75;;;20.00;99.90;;;;;;5067749;28;20157;-63
2021/07/22 02:22:00;;;;;;;83.32;44.13;;;20.00;99.90;;;;;;5066561;28;20169;-63
2021/07/22 02:24:26;;;;;;;82.85;43.67;;;20.00;99.90;;;;;;5068917;28;20646;-63
2021/07/22 02:26:51;;;;;;;84.25;43.80;;;20.00;99.90;;;;;;5068695;28;20577;-63
2021/07/22 02:29:17;;;;;;;82.68;44.63;;;20.10;99.90;;;;;;5068905;28;20157;-63
2021/07/22 02:31:42;;;;;;;83.05;46.30;;;20.40;99.90;;;;;;5066418;28;20228;-63
2021/07/22 02:34:08;;;;;;;101.05;50.63;;;20.40;99.90;;;;;;5068846;28;20180;-63
2021/07/22 02:36:34;;;;;;;98.13;50.22;;;20.20;99.90;;;;;;5068678;28;20171;-63
2021/07/22 02:39:00;;;;;;;94.93;49.72;;;20.20;99.90;;;;;;5067567;28;20248;-63
2021/07/22 02:41:27;;;;;;;87.57;45.60;;;20.00;99.90;;;;;;5066042;28;20175;-63
2021/07/22 02:43:53;;;;;;;92.13;46.53;;;19.90;99.90;;;;;;5068428;28;20224;-63
2021/07/22 02:46:18;;;;;;;79.25;43.72;;;19.70;99.90;;;;;;5067364;28;20160;-63
2021/07/22 02:48:44;;;;;;;80.20;43.75;;;19.70;99.90;;;;;;5068628;28;20176;-63
2021/07/22 02:51:10;;;;;;;83.53;45.35;;;19.50;99.90;;;;;;5065981;28;20175;-63
2021/07/22 02:53:36;;;;;;;79.20;43.85;;;19.50;99.90;;;;;;5068290;28;20207;-64
2021/07/22 02:56:03;;;;;;;78.05;44.70;;;19.60;99.90;;;;;;5068601;28;20153;-63
2021/07/22 02:58:29;;;;;;;81.45;45.00;;;19.60;99.90;;;;;;5068120;28;20697;-63
2021/07/22 03:00:55;;;;;;;77.75;42.00;;;19.50;99.90;;;;;;5065866;28;20161;-63
2021/07/22 03:03:21;;;;;;;82.05;45.15;;;19.50;99.90;;;;;;5068241;28;20164;-63
2021/07/22 03:05:47;;;;;;;72.75;40.70;;;19.40;99.90;;;;;;5068269;28;20164;-64
2021/07/22 03:08:13;;;;;;;85.47;43.17;;;19.40;99.90;;;;;;5068163;28;20224;-63
2021/07/22 03:10:41;;;;;;;80.47;42.33;;;19.50;99.90;;;;;;5065697;28;20175;-63
2021/07/22 03:13:06;;;;;;;72.60;41.03;;;19.60;99.90;;;;;;5067679;28;20192;-64
2021/07/22 03:15:32;;;;;;;75.57;40.72;;;19.60;99.90;;;;;;5068020;28;20295;-63
2021/07/22 03:17:57;;;;;;;71.07;38.80;;;19.60;99.90;;;;;;5067967;28;20161;-63
2021/07/22 03:20:23;;;;;;;71.80;39.88;;;19.50;99.90;;;;;;5066800;28;20163;-63
2021/07/22 03:22:49;;;;;;;75.85;41.55;;;19.50;99.90;;;;;;5066686;28;20157;-63
2021/07/22 03:25:15;;;;;;;91.25;44.33;;;19.60;99.90;;;;;;5067767;28;20183;-63
2021/07/22 03:27:41;;;;;;;83.68;43.50;;;19.60;99.90;;;;;;5067759;28;20169;-63
2021/07/22 03:30:07;;;;;;;70.93;37.88;;;19.40;99.90;;;;;;5067856;28;20165;-63
2021/07/22 03:32:35;;;;;;;67.68;37.75;;;19.40;99.90;;;;;;5065060;28;20433;-63
2021/07/22 03:35:00;;;;;;;71.40;39.70;;;19.30;99.90;;;;;;5067585;28;20191;-63
2021/07/22 03:37:26;;;;;;;81.90;44.53;;;19.30;99.90;;;;;;5067468;28;20165;-63
2021/07/22 03:39:51;;;;;;;76.35;40.85;;;19.30;99.90;;;;;;5067651;28;20165;-64
2021/07/22 03:42:17;;;;;;;66.05;38.28;;;19.30;99.90;;;;;;5064628;28;20918;-64
2021/07/22 03:44:43;;;;;;;79.18;42.83;;;19.30;99.90;;;;;;5067713;28;20188;-63
2021/07/22 03:47:08;;;;;;;86.97;44.95;;;19.40;99.90;;;;;;5067698;28;20168;-63
2021/07/22 03:49:34;;;;;;;78.35;44.60;;;19.30;99.90;;;;;;5067329;28;20165;-63
2021/07/22 03:52:01;;;;;;;89.90;45.25;;;19.40;99.90;;;;;;5064789;28;20157;-63
2021/07/22 03:54:27;;;;;;;87.18;47.28;;;19.50;99.90;;;;;;5067071;28;20177;-63
2021/07/22 03:56:52;;;;;;;97.75;51.40;;;19.70;99.90;;;;;;5067193;28;20172;-63
2021/07/22 03:59:18;;;;;;;106.60;53.35;;;19.90;99.90;;;;;;5067336;28;20647;-63
2021/07/22 04:01:44;;;;;;;102.85;53.83;;;19.90;99.90;;;;;;5063188;28;20176;-63
2021/07/22 04:04:10;;;;;;;102.85;55.17;;;19.80;99.90;;;;;;5067010;28;20579;-63
2021/07/22 04:06:37;;;;;;;109.57;55.67;;;19.80;99.90;;;;;;5066907;28;20195;-63
2021/07/22 04:09:03;;;;;;;111.30;53.85;;;19.60;99.90;;;;;;5066889;28;20296;-63
2021/07/22 04:11:29;;;;;;;97.65;51.38;;;19.30;99.90;;;;;;5064184;28;20263;-63
2021/07/22 04:13:55;;;;;;;93.05;51.67;;;19.20;99.90;;;;;;5066578;28;20283;-63
2021/07/22 04:16:21;;;;;;;96.70;51.88;;;19.10;99.90;;;;;;5066785;28;20152;-63
2021/07/22 04:18:46;;;;;;;96.65;51.67;;;19.20;99.90;;;;;;5066990;28;20187;-63
2021/07/22 04:21:12;;;;;;;95.97;49.10;;;19.20;99.90;;;;;;5064103;28;20207;-63
2021/07/22 04:23:38;;;;;;;95.65;48.58;;;19.30;99.90;;;;;;5066229;28;20247;-63
2021/07/22 04:26:03;;;;;;;93.93;49.95;;;19.30;99.90;;;;;;5066644;28;20165;-63
2021/07/22 04:28:29;;;;;;;92.15;49.28;;;19.40;99.90;;;;;;5065762;28;20169;-63
2021/07/22 04:30:54;;;;;;;91.55;48.60;;;19.40;99.90;;;;;;5063824;28;20195;-64
2021/07/22 04:33:20;;;;;;;84.95;46.85;;;19.20;99.90;;;;;;5066140;28;20740;-63
2021/07/22 04:35:46;;;;;;;79.10;44.35;;;19.10;99.90;;;;;;5066434;28;20192;-63
2021/07/22 04:38:12;;;;;;;81.38;45.05;;;19.10;99.90;;;;;;5066528;28;20189;-63
2021/07/22 04:40:37;;;;;;;84.57;43.67;;;19.10;99.90;;;;;;5063775;28;20165;-64
2021/07/22 04:43:03;;;;;;;82.75;42.78;;;19.10;99.90;;;;;;5065638;28;20176;-63
2021/07/22 04:45:29;;;;;;;84.93;46.95;;;19.10;99.90;;;;;;5066365;28;20344;-64
2021/07/22 04:47:55;;;;;;;89.25;47.53;;;19.10;99.90;;;;;;5066378;28;20165;-63
2021/07/22 04:50:20;;;;;;;87.72;44.05;;;19.20;99.90;;;;;;5064063;28;20176;-63
2021/07/22 04:52:46;;;;;;;76.68;43.42;;;19.20;99.90;;;;;;5064544;28;20188;-63
2021/07/22 04:55:11;;;;;;;86.80;45.25;;;19.20;99.90;;;;;;5066222;28;20180;-63
2021/07/22 04:57:37;;;;;;;80.75;45.20;;;19.20;99.90;;;;;;5064296;28;20206;-63
2021/07/22 05:00:05;;;;;;;86.47;49.17;;;19.20;99.90;;;;;;5064918;28;20161;-64
2021/07/22 05:02:30;;;;;;;91.00;51.05;;;19.20;99.90;;;;;;5063038;28;20161;-63
2021/07/22 05:04:56;;;;;;;99.28;52.13;;;19.20;99.90;;;;;;5065597;28;20176;-64
2021/07/22 05:07:22;;;;;;;94.20;49.58;;;19.20;99.90;;;;;;5065354;28;20212;-64
2021/07/22 05:09:47;;;;;;;101.82;51.95;;;19.30;99.90;;;;;;5065881;28;20165;-64
2021/07/22 05:12:13;;;;;;;94.85;51.05;;;19.40;99.90;;;;;;5061622;28;20188;-63
2021/07/22 05:14:39;;;;;;;97.88;51.33;;;19.40;99.90;;;;;;5064385;28;20172;-63
2021/07/22 05:17:04;;;;;;;99.50;52.78;;;19.40;99.90;;;;;;5065961;28;20243;-63
2021/07/22 05:19:30;;;;;;;103.05;55.25;;;19.50;99.90;;;;;;5065816;28;20618;-64
2021/07/22 05:21:56;;;;;;;108.07;53.90;;;19.60;99.90;;;;;;5063111;28;20175;-63
2021/07/22 05:24:21;;;;;;;96.40;52.67;;;19.60;99.90;;;;;;5065384;28;20670;-63
2021/07/22 05:26:49;;;;;;;110.90;54.78;;;19.60;99.90;;;;;;5065736;28;20169;-64
2021/07/22 05:29:14;;;;;;;107.43;54.97;;;19.60;99.90;;;;;;5065395;28;20160;-63
2021/07/22 05:31:41;;;;;;;99.93;53.22;;;19.70;99.90;;;;;;5062917;28;20530;-64
2021/07/22 05:34:07;;;;;;;94.60;52.33;;;19.70;99.90;;;;;;5063554;28;20197;-63
2021/07/22 05:36:34;;;;;;;100.68;53.78;;;19.70;99.90;;;;;;5065417;28;20279;-63
2021/07/22 05:38:59;;;;;;;98.35;52.03;;;19.70;99.90;;;;;;5065589;28;20157;-63
2021/07/22 05:41:25;;;;;;;96.03;50.97;;;19.70;99.90;;;;;;5062638;28;20195;-63
2021/07/22 05:43:51;;;;;;;96.20;51.05;;;19.80;99.90;;;;;;5065125;28;20227;-63
2021/07/22 05:46:21;;;;;;;97.32;50.95;;;19.80;99.90;;;;;;5065433;28;20172;-63
2021/07/22 05:48:49;;;;;;;96.63;50.58;;;19.90;99.90;;;;;;5065211;28;20187;-63
2021/07/22 05:51:15;;;;;;;100.18;51.80;;;19.90;99.90;;;;;;5061374;28;20179;-63
2021/07/22 05:53:41;;;;;;;95.13;48.92;;;20.00;99.90;;;;;;5065425;28;20220;-63
2021/07/22 05:56:09;;;;;;;102.15;50.42;;;20.00;99.90;;;;;;5065301;28;20172;-63
2021/07/22 05:58:34;;;;;;;95.00;49.17;;;20.10;99.90;;;;;;5064824;28;20173;-64
2021/07/22 06:01:05;;;;;;;88.15;48.53;;;20.00;99.90;;;;;;5062870;28;20160;-63
2021/07/22 06:03:31;;;;;;;95.10;51.47;;;20.00;99.90;;;;;;5064751;28;20418;-63
2021/07/22 06:05:57;;;;;;;92.07;47.40;;;20.20;99.90;;;;;;5065428;28;20387;-63
2021/07/22 06:08:22;;;;;;;94.85;49.45;;;20.30;99.90;;;;;;5065178;28;20262;-63
2021/07/22 06:10:48;;;;;;;85.82;46.25;;;20.30;99.90;;;;;;5062772;28;20168;-64
2021/07/22 06:13:14;;;;;;;87.80;48.75;;;20.40;99.90;;;;;;5064563;28;20507;-63
2021/07/22 06:15:39;;;;;;;92.10;47.25;;;20.50;99.90;;;;;;5065406;28;20244;-63
2021/07/22 06:18:05;;;;;;;86.60;45.95;;;20.50;99.90;;;;;;5065138;28;20232;-63
2021/07/22 06:20:31;;;;;;;92.03;46.10;;;20.70;99.90;;;;;;5063299;28;20157;-64
2021/07/22 06:22:56;;;;;;;89.13;45.67;;;20.80;99.90;;;;;;5064718;28;20184;-63
2021/07/22 06:25:22;;;;;;;85.93;46.33;;;20.90;99.90;;;;;;5065235;28;20212;-63
2021/07/22 06:27:48;;;;;;;93.13;47.03;;;21.00;99.90;;;;;;5064807;28;20729;-63
2021/07/22 06:30:13;;;;;;;87.35;44.67;;;21.00;99.90;;;;;;5065092;28;20175;-64
2021/07/22 06:32:39;;;;;;;88.20;45.15;;;21.10;99.90;;;;;;5062421;28;20199;-64
2021/07/22 06:35:05;;;;;;;89.15;44.65;;;21.00;99.90;;;;;;5064909;28;20229;-64
2021/07/22 06:37:48;;;;;;;86.63;44.13;;;21.10;99.90;;;;;;5064973;28;20164;-64
2021/07/22 06:40:15;;;;;;;87.72;43.63;;;21.20;99.90;;;;;;5064840;28;20153;-64
2021/07/22 06:42:42;;;;;;;84.70;43.53;;;21.20;99.90;;;;;;5062443;28;20177;-63
2021/07/22 06:45:08;;;;;;;82.93;43.05;;;21.20;99.90;;;;;;5063448;28;20169;-63
2021/07/22 06:47:40;;;;;;;79.10;42.15;;;21.30;99.90;;;;;;5068377;28;20161;-63
2021/07/22 06:50:08;;;;;;;77.25;38.78;;;21.40;99.90;;;;;;5068653;28;20172;-63
2021/07/22 06:52:37;;;;;;;73.95;35.97;;;21.50;99.90;;;;;;5065570;28;20196;-63
2021/07/22 06:55:05;;;;;;;86.05;38.92;;;21.60;99.90;;;;;;5068181;28;20753;-64
2021/07/22 06:57:31;;;;;;;75.25;37.88;;;21.70;99.90;;;;;;5068058;28;20165;-63
2021/07/22 06:59:56;;;;;;;74.15;38.95;;;21.80;99.90;;;;;;5068392;28;20183;-63
2021/07/22 07:02:22;;;;;;;78.18;38.40;;;21.90;99.90;;;;;;5065560;28;20247;-64
2021/07/22 07:04:48;;;;;;;87.68;42.47;;;22.00;99.90;;;;;;5066903;28;20191;-63
2021/07/22 07:07:16;;;;;;;78.30;38.92;;;22.10;99.90;;;;;;5067947;28;20237;-63
2021/07/22 07:09:42;;;;;;;75.40;39.30;;;22.10;99.90;;;;;;5068336;28;20210;-63
2021/07/22 07:12:09;;;;;;;73.00;38.03;;;22.10;99.90;;;;;;5065323;28;20165;-64
2021/07/22 07:14:34;;;;;;;74.90;36.25;;;22.20;99.90;;;;;;5067822;28;20168;-63
2021/07/22 07:17:00;;;;;;;74.57;37.55;;;22.30;99.90;;;;;;5068327;28;20161;-63
2021/07/22 07:19:26;;;;;;;77.90;40.38;;;22.40;99.90;;;;;;5067983;28;20306;-63
2021/07/22 07:21:51;;;;;;;75.60;36.13;;;22.50;99.90;;;;;;5065336;28;20164;-64
2021/07/22 07:24:17;;;;;;;70.13;36.33;;;22.70;99.90;;;;;;5067534;28;20168;-63
2021/07/22 07:26:42;;;;;;;76.40;37.75;;;22.70;99.90;;;;;;5067875;28;20165;-63
2021/07/22 07:29:08;;;;;;;75.68;36.28;;;22.70;99.90;;;;;;5067587;28;20169;-63
2021/07/22 07:31:34;;;;;;;70.90;33.80;;;22.50;99.90;;;;;;5065112;28;20199;-63
2021/07/22 07:33:59;;;;;;;74.72;36.25;;;22.60;99.90;;;;;;5066471;28;20199;-63
2021/07/22 07:36:25;;;;;;;69.40;33.50;;;22.60;99.90;;;;;;5067633;28;20157;-63
2021/07/22 07:38:50;;;;;;;68.63;33.95;;;22.60;99.90;;;;;;5067506;28;20203;-63
2021/07/22 07:41:16;;;;;;;55.22;30.05;;;22.30;99.90;;;;;;5064559;28;20244;-63
2021/07/22 07:43:42;;;;;;;61.97;30.88;;;22.40;99.90;;;;;;5067193;28;20192;-63
2021/07/22 07:46:07;;;;;;;58.40;30.13;;;22.40;99.90;;;;;;5067666;28;20189;-63
2021/07/22 07:48:33;;;;;;;65.60;30.63;;;22.60;99.90;;;;;;5067241;28;20358;-64
2021/07/22 07:51:00;;;;;;;48.83;27.25;;;22.60;99.90;;;;;;5064982;28;20192;-63
2021/07/22 07:53:26;;;;;;;60.15;29.83;;;22.80;99.90;;;;;;5067123;28;20197;-63
2021/07/22 07:55:52;;;;;;;65.03;32.45;;;22.90;99.90;;;;;;5067316;28;20184;-63
2021/07/22 07:58:17;;;;;;;54.08;27.77;;;23.20;99.90;;;;;;5065560;28;20173;-63
2021/07/22 08:00:43;;;;;;;40.17;20.75;;;23.30;99.90;;;;;;5064931;28;20176;-63
2021/07/22 08:03:18;;;;;;;40.92;22.95;;;23.40;99.90;;;;;;5067032;28;20219;-64
2021/07/22 08:05:43;;;;;;;36.28;19.27;;;23.30;99.90;;;;;;5067029;28;20171;-63
2021/07/22 08:08:09;;;;;;;43.70;21.80;;;23.40;99.90;;;;;;5066972;28;20299;-64
2021/07/22 08:10:35;;;;;;;38.97;21.88;;;23.20;99.90;;;;;;5064622;28;20160;-63
2021/07/22 08:13:11;;;;;;;45.00;22.73;;;23.10;99.90;;;;;;5066324;28;20208;-63
2021/07/22 08:15:40;;;;;;;41.92;23.63;;;23.30;99.90;;;;;;5066712;28;20206;-64
2021/07/22 08:18:05;;;;;;;47.00;23.65;;;23.40;99.90;;;;;;5066841;28;20157;-64
2021/07/22 08:20:31;;;;;;;45.45;24.83;;;23.50;99.90;;;;;;5064587;28;20232;-63
2021/07/22 08:22:57;;;;;;;45.22;24.23;;;23.60;99.90;;;;;;5065975;28;20231;-64
2021/07/22 08:25:23;;;;;;;50.60;25.65;;;23.70;99.90;;;;;;5066377;28;20226;-64
2021/07/22 08:27:49;;;;;;;51.78;25.30;;;23.60;99.90;;;;;;5066416;28;20203;-63
2021/07/22 08:30:15;;;;;;;45.95;24.40;;;23.80;99.90;;;;;;5066503;28;20160;-63
2021/07/22 08:32:41;;;;;;;54.00;26.70;;;23.90;99.90;;;;;;5064441;28;20192;-63
2021/07/22 08:35:08;;;;;;;51.30;26.70;;;24.10;99.90;;;;;;5066236;28;20196;-63
2021/07/22 08:37:33;;;;;;;46.95;24.58;;;24.20;99.90;;;;;;5066486;28;20160;-64
2021/07/22 08:40:04;;;;;;;53.38;26.02;;;24.30;99.90;;;;;;5066184;28;20170;-63
2021/07/22 08:42:35;;;;;;;50.60;26.42;;;24.40;99.90;;;;;;5063648;28;20168;-64
2021/07/22 08:45:02;;;;;;;52.38;26.70;;;24.30;99.90;;;;;;5066333;28;20203;-63
2021/07/22 08:47:28;;;;;;;56.42;25.70;;;24.30;99.90;;;;;;5066454;28;20559;-64
2021/07/22 08:49:54;;;;;;;55.80;27.42;;;24.50;99.90;;;;;;5066325;28;20165;-63
2021/07/22 08:52:21;;;;;;;46.78;22.92;;;24.60;99.90;;;;;;5063600;28;20185;-63
2021/07/22 08:54:46;;;;;;;43.78;21.10;;;24.70;99.90;;;;;;5066308;28;20195;-63
2021/07/22 08:57:13;;;;;;;43.67;23.00;;;24.20;99.90;;;;;;5066129;28;20168;-64
2021/07/22 08:59:39;;;;;;;47.53;22.85;;;23.80;99.90;;;;;;5066095;28;20165;-63
2021/07/22 09:02:06;;;;;;;40.22;20.98;;;23.60;99.90;;;;;;5063530;28;20186;-64
2021/07/22 09:05:00;;;;;;;35.85;19.00;;;23.70;99.90;;;;;;5065947;28;20169;-63
2021/07/22 09:07:26;;;;;;;36.78;20.08;;;23.80;99.90;;;;;;5065870;28;20209;-64
2021/07/22 09:10:04;;;;;;;32.45;18.38;;;23.40;99.90;;;;;;5065876;28;20153;-63
2021/07/22 09:12:51;;;;;;;33.08;18.95;;;23.70;99.90;;;;;;5061518;28;20548;-63
2021/07/22 09:15:22;;;;;;;36.42;19.55;;;23.90;99.90;;;;;;5064260;28;20247;-64
2021/07/22 09:17:48;;;;;;;34.35;18.30;;;23.70;99.90;;;;;;5065621;28;20228;-63
2021/07/22 09:20:26;;;;;;;33.70;17.17;;;23.60;99.90;;;;;;5064682;28;20161;-63
2021/07/22 09:22:52;;;;;;;28.30;16.92;;;23.90;99.90;;;;;;5064945;28;20243;-64
2021/07/22 09:25:18;;;;;;;33.30;17.95;;;24.00;99.90;;;;;;5065639;28;20777;-64
2021/07/22 09:27:45;;;;;;;24.42;13.93;;;24.40;99.90;;;;;;5065458;28;20172;-64
2021/07/22 09:30:19;;;;;;;23.75;13.48;;;24.40;99.90;;;;;;5065921;28;20191;-64
2021/07/22 09:32:49;;;;;;;17.63;11.85;;;24.60;99.90;;;;;;5063906;28;20194;-64
2021/07/22 09:35:20;;;;;;;20.70;12.85;;;24.90;99.90;;;;;;5065481;28;20236;-64
2021/07/22 09:37:47;;;;;;;18.85;12.52;;;25.10;99.90;;;;;;5064363;28;20528;-64
2021/07/22 09:40:25;;;;;;;19.30;11.50;;;25.40;99.90;;;;;;5065510;28;20180;-64
2021/07/22 09:42:55;;;;;;;18.60;11.93;;;25.60;99.90;;;;;;5064172;28;20186;-63
2021/07/22 09:45:26;;;;;;;22.13;13.40;;;25.90;99.90;;;;;;5065441;28;20172;-63
2021/07/22 09:47:57;;;;;;;17.20;13.15;;;25.90;99.90;;;;;;5065839;28;20164;-63
2021/07/22 09:50:25;;;;;;;16.27;9.70;;;26.10;99.90;;;;;;5064355;28;20164;-64
2021/07/22 09:53:08;;;;;;;27.63;12.68;;;26.20;99.90;;;;;;5064147;28;20188;-64
2021/07/22 09:55:34;;;;;;;25.95;11.77;;;26.60;99.90;;;;;;5065258;28;20226;-63
2021/07/22 09:58:02;;;;;;;18.77;12.55;;;26.70;99.90;;;;;;5065077;28;20190;-64
2021/07/22 10:00:29;;;;;;;19.80;10.77;;;26.70;99.90;;;;;;5063446;28;20179;-64
2021/07/22 10:02:58;;;;;;;12.85;10.50;;;26.60;99.90;;;;;;5063312;28;20187;-64
2021/07/22 10:05:27;;;;;;;9.40;7.72;;;26.30;99.90;;;;;;5065196;28;20259;-64
2021/07/22 10:07:53;;;;;;;11.10;9.35;;;25.50;99.90;;;;;;5065192;28;20209;-64
2021/07/22 10:10:21;;;;;;;13.52;8.75;;;25.20;99.90;;;;;;5064510;28;20167;-63
2021/07/22 10:13:01;;;;;;;13.25;8.43;;;25.20;99.90;;;;;;5062838;28;20672;-64
2021/07/22 10:15:32;;;;;;;15.73;9.57;;;25.50;99.90;;;;;;5065158;28;20222;-64
2021/07/22 10:17:59;;;;;;;13.02;9.38;;;25.60;99.90;;;;;;5065250;28;20169;-63
2021/07/22 10:20:28;;;;;;;14.10;8.35;;;25.60;99.90;;;;;;5064402;28;20161;-63
2021/07/22 10:22:55;;;;;;;11.82;8.07;;;25.80;99.90;;;;;;5066615;28;20172;-63
2021/07/22 10:25:20;;;;;;;17.55;9.88;;;26.20;99.90;;;;;;5068977;28;20161;-64
2021/07/22 10:27:47;;;;;;;17.63;10.25;;;26.40;99.90;;;;;;5068620;28;20211;-63
2021/07/22 10:30:14;;;;;;;12.25;10.02;;;26.70;99.90;;;;;;5069206;28;20171;-64
2021/07/22 10:32:48;;;;;;;14.15;11.52;;;26.90;99.90;;;;;;5066544;28;20605;-64
2021/07/22 10:35:20;;;;;;;15.70;10.93;;;26.40;99.90;;;;;;5068986;28;20186;-63
2021/07/22 10:38:05;;;;;;;11.45;9.20;;;26.10;99.90;;;;;;5069007;28;20193;-63
2021/07/22 10:40:46;;;;;;;16.60;10.88;;;26.10;99.90;;;;;;5066833;28;20165;-64
2021/07/22 10:43:37;;;;;;;16.48;9.32;;;26.30;99.90;;;;;;5068358;28;20212;-63
2021/07/22 10:46:04;;;;;;;16.60;9.82;;;26.60;99.90;;;;;;5068594;28;20638;-63
2021/07/22 10:48:30;;;;;;;16.02;8.77;;;26.80;99.90;;;;;;5068398;28;20203;-63
2021/07/22 10:50:56;;;;;;;13.20;9.00;;;27.00;99.90;;;;;;5064599;28;20161;-63
2021/07/22 10:53:44;;;;;;;15.68;8.68;;;27.20;99.90;;;;;;5068166;28;20211;-64
2021/07/22 10:56:12;;;;;;;19.15;9.80;;;27.10;99.90;;;;;;5068296;28;20168;-63
2021/07/22 10:58:37;;;;;;;11.82;7.93;;;26.60;99.90;;;;;;5068042;28;20169;-64
2021/07/22 11:01:07;;;;;;;10.95;8.60;;;26.50;99.90;;;;;;5065520;28;20179;-63
2021/07/22 11:03:36;;;;;;;10.10;7.18;;;26.50;99.90;;;;;;5068452;28;20161;-64
2021/07/22 11:06:14;;;;;;;8.25;6.70;;;26.80;99.90;;;;;;5068353;28;20160;-64
2021/07/22 11:08:42;;;;;;;14.27;7.38;;;27.10;99.90;;;;;;5068298;28;20522;-64
2021/07/22 11:11:17;;;;;;;11.68;8.20;;;27.40;99.90;;;;;;5064275;28;20236;-63
2021/07/22 11:13:45;;;;;;;14.18;8.10;;;27.80;99.90;;;;;;5067987;28;20195;-63
2021/07/22 11:16:22;;;;;;;17.08;7.82;;;28.20;99.90;;;;;;5068079;28;20172;-64
2021/07/22 11:18:58;;;;;;;8.50;7.70;;;28.50;99.90;;;;;;5068151;28;20656;-64
2021/07/22 11:21:29;;;;;;;8.02;6.80;;;28.70;99.90;;;;;;5065515;28;20172;-64
2021/07/22 11:24:06;;;;;;;11.35;7.78;;;28.40;99.90;;;;;;5067766;28;20175;-64
2021/07/22 11:26:43;;;;;;;9.65;7.88;;;28.60;99.90;;;;;;5067921;28;20676;-64
2021/07/22 11:29:10;;;;;;;12.05;8.35;;;28.80;99.90;;;;;;5067570;28;20240;-64
2021/07/22 11:31:47;;;;;;;11.40;8.73;;;28.80;99.90;;;;;;5064702;28;20163;-64
2021/07/22 11:34:14;;;;;;;10.45;8.15;;;28.70;99.90;;;;;;5067294;28;20222;-64
2021/07/22 11:36:40;;;;;;;11.05;7.18;;;28.80;99.90;;;;;;5067799;28;20244;-65
2021/07/22 11:39:07;;;;;;;11.63;8.13;;;28.60;99.90;;;;;;5066387;28;20236;-64
2021/07/22 11:41:33;;;;;;;9.40;7.55;;;28.50;99.90;;;;;;5064833;28;20250;-64
2021/07/22 11:44:00;;;;;;;12.93;7.68;;;28.60;99.90;;;;;;5066364;28;20235;-64
2021/07/22 11:46:45;;;;;;;9.82;7.43;;;28.40;99.90;;;;;;5066579;28;20171;-64
2021/07/22 11:49:14;;;;;;;8.57;5.95;;;28.30;99.90;;;;;;5067087;28;20165;-64
2021/07/22 11:51:44;;;;;;;9.88;6.55;;;28.30;99.90;;;;;;5064761;28;20171;-64
2021/07/22 11:54:12;;;;;;;9.23;7.90;;;28.50;99.90;;;;;;5067234;28;20256;-64
2021/07/22 11:56:38;;;;;;;7.38;6.63;;;28.30;99.90;;;;;;5067232;28;20157;-64
2021/07/22 11:59:07;;;;;;;9.65;6.70;;;28.20;99.90;;;;;;5066966;28;20175;-64
2021/07/22 12:01:53;;;;;;;7.50;6.70;;;28.30;99.90;;;;;;5064507;28;20233;-65
2021/07/22 12:04:35;;;;;;;7.55;6.32;;;28.50;99.90;;;;;;5066893;28;20179;-64
2021/07/22 12:07:03;;;;;;;8.73;6.25;;;28.60;99.90;;;;;;5066624;28;20243;-64
2021/07/22 12:09:30;;;;;;;8.02;6.13;;;28.80;99.90;;;;;;5066969;28;20168;-64
2021/07/22 12:11:58;;;;;;;9.35;7.53;;;28.90;99.90;;;;;;5064497;28;20172;-64
2021/07/22 12:14:35;;;;;;;12.45;6.30;;;29.20;99.90;;;;;;5066513;28;20201;-64
2021/07/22 12:17:06;;;;;;;6.25;5.68;;;29.30;99.90;;;;;;5066966;28;20156;-64
2021/07/22 12:19:33;;;;;;;7.65;6.40;;;29.30;99.90;;;;;;5066898;28;20160;-64
2021/07/22 12:22:25;;;;;;;11.07;6.38;;;29.00;99.90;;;;;;5064239;28;20165;-64
2021/07/22 12:24:54;;;;;;;8.35;6.40;;;29.00;99.90;;;;;;5064632;28;20646;-64
2021/07/22 12:27:31;;;;;;;7.10;6.50;;;29.10;99.90;;;;;;5066494;28;20161;-64
2021/07/22 12:29:58;;;;;;;8.25;5.95;;;29.20;99.90;;;;;;5066717;28;20183;-64